Time;durP1;ratioP1;P1;durP2;ratioP2;P2;SDS_P1;SDS_P2;PMS_P1;PMS_P2;Temp;Humidity;BMP_temperature;BMP_pressure;BME280_temperature;BME280_humidity;BME280_pressure;Samples;Min_cycle;Max_cycle;Signal;HPM_P1;HPM_P2
2021/12/01 00:01:08;;;;;;;4.70;4.20;;;;;;;11.44;50.26;97662.12;1764966;80;21073;-62
2021/12/01 00:03:34;;;;;;;4.90;3.98;;;;;;;11.44;50.24;97656.00;1785294;80;20989;-61
2021/12/01 00:06:02;;;;;;;4.97;4.25;;;;;;;11.43;50.23;97655.69;1787715;79;21703;-63
2021/12/01 00:08:29;;;;;;;4.92;4.37;;;;;;;11.43;50.24;97645.05;1766271;80;21027;-62
2021/12/01 00:10:56;;;;;;;5.67;4.28;;;;;;;11.43;50.23;97637.88;1779662;80;21097;-61
2021/12/01 00:13:22;;;;;;;4.45;4.00;;;;;;;11.43;50.20;97641.06;1778568;80;21550;-61
2021/12/01 00:15:52;;;;;;;4.78;4.10;;;;;;;11.41;50.21;97646.11;1774874;80;21068;-61
2021/12/01 00:18:18;;;;;;;5.15;4.37;;;;;;;11.41;50.21;97644.78;1777630;80;21139;-62
2021/12/01 00:20:46;;;;;;;5.58;4.20;;;;;;;11.41;50.20;97643.94;1786781;80;21042;-61
2021/12/01 00:23:13;;;;;;;5.17;4.58;;;;;;;11.40;50.20;97654.30;1769596;80;21156;-60
2021/12/01 00:25:42;;;;;;;4.62;3.87;;;;;;;11.40;50.19;97651.64;1772390;80;21041;-61
2021/12/01 00:28:10;;;;;;;5.15;4.45;;;;;;;11.39;50.21;97656.65;1776834;80;21584;-60
2021/12/01 00:30:40;;;;;;;4.55;4.03;;;;;;;11.39;50.18;97654.80;1764209;80;21506;-61
2021/12/01 00:33:10;;;;;;;4.67;4.28;;;;;;;11.40;50.15;97652.97;1771642;80;21075;-61
2021/12/01 00:35:37;;;;;;;4.97;4.42;;;;;;;11.39;50.16;97656.65;1784912;79;21885;-61
2021/12/01 00:38:03;;;;;;;4.70;4.08;;;;;;;11.37;50.16;97644.10;1803545;78;21001;-61
2021/12/01 00:40:30;;;;;;;5.08;4.58;;;;;;;11.37;50.15;97650.22;1814299;78;21049;-62
2021/12/01 00:42:57;;;;;;;5.05;4.55;;;;;;;11.36;50.15;97646.48;1805380;78;21036;-61
2021/12/01 00:45:28;;;;;;;5.20;4.70;;;;;;;11.36;50.14;97633.19;1787619;78;21037;-61
2021/12/01 00:47:55;;;;;;;4.95;4.40;;;;;;;11.37;50.14;97636.93;1750488;78;21103;-61
2021/12/01 00:50:25;;;;;;;5.50;4.03;;;;;;;11.35;50.15;97635.02;1791253;79;21060;-62
2021/12/01 00:52:54;;;;;;;5.10;4.60;;;;;;;11.36;50.15;97637.98;1798798;79;21470;-61
2021/12/01 00:55:20;;;;;;;5.28;4.70;;;;;;;11.35;50.14;97633.69;1801209;79;21017;-61
2021/12/01 00:57:50;;;;;;;5.22;4.67;;;;;;;11.35;50.13;97624.38;1789380;79;21036;-61
2021/12/01 01:00:16;;;;;;;5.05;4.50;;;;;;;11.35;50.14;97622.25;1794571;79;21559;-61
2021/12/01 01:02:42;;;;;;;4.90;4.40;;;;;;;11.34;50.11;97617.45;1782288;79;21001;-61
2021/12/01 01:05:10;;;;;;;4.50;4.03;;;;;;;11.35;50.13;97618.27;1772784;79;21039;-61
2021/12/01 01:07:37;;;;;;;7.03;4.42;;;;;;;11.35;50.13;97612.95;1801105;79;21005;-60
2021/12/01 01:10:16;;;;;;;4.95;3.87;;;;;;;11.34;50.14;97612.14;1796250;79;21032;-61
2021/12/01 01:18:08;;;;;;;4.40;3.85;;;;;;;11.32;50.13;97611.56;1759881;80;21065;-61
2021/12/01 01:20:35;;;;;;;5.00;4.05;;;;;;;11.32;50.15;97600.92;1718482;80;21100;-60
2021/12/01 01:23:02;;;;;;;4.62;3.92;;;;;;;11.30;50.17;97600.34;1780800;80;20970;-60
2021/12/01 01:25:29;;;;;;;5.25;4.33;;;;;;;11.31;50.18;97599.81;1779813;80;21149;-60
2021/12/01 01:27:56;;;;;;;5.35;4.60;;;;;;;11.29;50.18;97582.76;1778957;80;21025;-61
2021/12/01 01:30:22;;;;;;;5.22;4.72;;;;;;;11.29;50.16;97572.65;1767031;80;20997;-61
2021/12/01 01:32:50;;;;;;;5.70;4.53;;;;;;;11.29;50.18;97589.41;1770886;80;21033;-59
2021/12/01 01:35:18;;;;;;;5.50;4.45;;;;;;;11.29;50.16;97581.95;1742366;80;21124;-61
2021/12/01 01:37:46;;;;;;;5.47;4.87;;;;;;;11.29;50.15;97588.59;1764320;80;21915;-60
2021/12/01 01:40:13;;;;;;;6.00;4.67;;;;;;;11.29;50.15;97567.34;1773341;79;21056;-61
2021/12/01 01:42:39;;;;;;;4.92;4.42;;;;;;;11.28;50.14;97567.86;1765459;80;21040;-62
2021/12/01 01:45:07;;;;;;;5.78;4.95;;;;;;;11.27;50.15;97558.25;1773968;79;21030;-61
2021/12/01 01:47:35;;;;;;;4.87;4.28;;;;;;;11.27;50.15;97561.44;1787220;79;20982;-62
2021/12/01 01:52:34;;;;;;;5.28;4.22;;;;;;;11.26;50.14;97550.00;1778306;80;21607;-61
2021/12/01 01:55:02;;;;;;;5.20;4.50;;;;;;;11.25;50.15;97560.33;1783752;80;21009;-61
2021/12/01 01:57:30;;;;;;;4.22;3.80;;;;;;;11.25;50.14;97540.92;1785247;80;21045;-61
2021/12/01 01:59:57;;;;;;;4.72;4.15;;;;;;;11.26;50.15;97546.51;1776617;80;20969;-61
2021/12/01 02:02:23;;;;;;;5.25;4.20;;;;;;;11.24;50.12;97534.77;1770933;80;21144;-61
2021/12/01 02:04:49;;;;;;;5.15;4.40;;;;;;;11.24;50.12;97536.63;1772573;80;21142;-61
2021/12/01 02:07:16;;;;;;;4.67;3.92;;;;;;;11.24;50.12;97530.78;1785834;80;20982;-61
2021/12/01 02:09:43;;;;;;;4.95;4.15;;;;;;;11.23;50.13;97525.72;1772225;80;21037;-61
2021/12/01 02:12:10;;;;;;;5.00;4.40;;;;;;;11.22;50.14;97532.86;1764259;79;21048;-61
2021/12/01 02:14:36;;;;;;;4.75;4.25;;;;;;;11.23;50.13;97533.69;1796000;79;21061;-61
2021/12/01 02:17:04;;;;;;;4.97;4.17;;;;;;;11.21;50.13;97533.39;1785856;79;21021;-61
2021/12/01 02:19:31;;;;;;;6.00;4.12;;;;;;;11.22;50.11;97526.22;1793198;79;21061;-61
2021/12/01 02:21:57;;;;;;;4.92;4.42;;;;;;;11.21;50.09;97518.77;1791432;79;21005;-61
2021/12/01 02:24:24;;;;;;;5.05;4.55;;;;;;;11.21;50.09;97512.12;1796313;79;21070;-60
2021/12/01 02:26:51;;;;;;;5.60;4.33;;;;;;;11.21;50.09;97519.30;1783443;79;21132;-60
2021/12/01 02:29:25;;;;;;;5.00;4.50;;;;;;;11.21;50.06;97517.97;1775849;79;21056;-61
2021/12/01 02:31:52;;;;;;;4.60;4.20;;;;;;;11.21;50.09;97517.44;1792720;79;21037;-61
2021/12/01 02:34:22;;;;;;;5.62;4.62;;;;;;;11.20;50.06;97517.16;1796419;79;21048;-61
2021/12/01 02:36:55;;;;;;;5.12;4.55;;;;;;;11.19;50.05;97524.03;1791902;79;21011;-61
2021/12/01 02:39:22;;;;;;;5.45;4.45;;;;;;;11.19;50.06;97512.06;1787202;79;21062;-62
2021/12/01 02:41:54;;;;;;;4.25;3.83;;;;;;;11.17;50.06;97518.94;1777116;79;21041;-61
2021/12/01 02:44:21;;;;;;;5.00;4.50;;;;;;;11.17;50.08;97513.62;1778743;80;21021;-60
2021/12/01 02:46:48;;;;;;;5.22;4.08;;;;;;;11.16;50.09;97512.02;1815325;78;21052;-61
2021/12/01 02:49:23;;;;;;;6.67;4.65;;;;;;;11.16;50.10;97512.51;1775012;78;21069;-63
2021/12/01 02:51:52;;;;;;;5.00;4.17;;;;;;;11.15;50.10;97513.03;1818201;77;21131;-62
2021/12/01 02:54:18;;;;;;;4.90;4.12;;;;;;;11.14;50.09;97511.40;1812839;77;20973;-61
2021/12/01 02:56:47;;;;;;;4.62;4.00;;;;;;;11.13;50.11;97513.78;1816229;78;22011;-62
2021/12/01 02:59:14;;;;;;;4.50;4.05;;;;;;;11.12;50.11;97521.45;1783486;80;21088;-62
2021/12/01 03:01:41;;;;;;;4.65;4.08;;;;;;;11.12;50.10;97526.77;1796450;79;21089;-61
2021/12/01 03:04:08;;;;;;;4.80;4.30;;;;;;;11.12;50.11;97517.98;1785284;79;21124;-61
2021/12/01 03:06:36;;;;;;;4.25;3.85;;;;;;;11.10;50.11;97514.22;1758938;80;21034;-60
2021/12/01 03:09:06;;;;;;;4.75;4.28;;;;;;;11.11;50.11;97511.06;1772456;80;21014;-60
2021/12/01 03:11:36;;;;;;;4.37;3.85;;;;;;;11.11;50.11;97517.71;1760327;80;20995;-61
2021/12/01 03:14:09;;;;;;;5.78;4.25;;;;;;;11.10;50.11;97506.77;1769690;80;21457;-60
2021/12/01 03:16:36;;;;;;;6.83;4.75;;;;;;;11.10;50.12;97504.12;1755020;80;21073;-60
2021/12/01 03:19:02;;;;;;;4.87;4.37;;;;;;;11.10;50.13;97510.77;1765594;80;21057;-60
2021/12/01 03:21:28;;;;;;;4.80;4.30;;;;;;;11.09;50.12;97509.95;1764897;80;21506;-61
2021/12/01 03:23:55;;;;;;;4.67;4.15;;;;;;;11.10;50.11;97508.91;1766192;79;21046;-60
2021/12/01 03:26:21;;;;;;;4.58;4.08;;;;;;;11.09;50.13;97509.95;1750532;80;21077;-60
2021/12/01 03:28:48;;;;;;;4.12;3.72;;;;;;;11.09;50.13;97503.84;1756856;80;23173;-61
2021/12/01 03:31:14;;;;;;;4.83;4.28;;;;;;;11.08;50.14;97505.66;1761827;80;21021;-60
2021/12/01 03:33:41;;;;;;;4.33;3.92;;;;;;;11.08;50.13;97508.32;1753563;80;21007;-61
2021/12/01 03:36:08;;;;;;;4.97;4.17;;;;;;;11.08;50.15;97507.00;1768612;80;21001;-60
2021/12/01 03:38:34;;;;;;;5.05;3.92;;;;;;;11.07;50.15;97505.39;1751785;80;21111;-59
2021/12/01 03:41:02;;;;;;;4.80;4.03;;;;;;;11.07;50.14;97510.70;1780494;80;21255;-61
2021/12/01 03:43:29;;;;;;;4.60;3.77;;;;;;;11.08;50.13;97508.85;1778348;80;21421;-59
2021/12/01 03:45:55;;;;;;;5.08;3.98;;;;;;;11.08;50.15;97508.32;1762086;80;21528;-61
2021/12/01 03:48:23;;;;;;;4.70;3.58;;;;;;;11.07;50.14;97512.03;1756714;80;21518;-60
2021/12/01 03:50:50;;;;;;;4.53;3.90;;;;;;;11.07;50.15;97505.39;1787288;79;21489;-60
2021/12/01 03:53:18;;;;;;;5.20;3.95;;;;;;;11.07;50.15;97505.89;1762654;80;23261;-61
2021/12/01 03:55:45;;;;;;;5.25;4.25;;;;;;;11.07;50.14;97506.72;1772461;80;21072;-60
2021/12/01 03:58:12;;;;;;;5.92;4.22;;;;;;;11.06;50.15;97517.04;1777874;79;21061;-60
2021/12/01 04:00:39;;;;;;;4.75;3.80;;;;;;;11.06;50.16;97506.94;1784186;80;21058;-61
2021/12/01 04:03:05;;;;;;;5.42;4.10;;;;;;;11.05;50.16;97504.80;1777374;80;21044;-60
2021/12/01 04:05:34;;;;;;;4.55;3.95;;;;;;;11.04;50.17;97503.17;1774750;80;21143;-61
2021/12/01 04:08:01;;;;;;;4.62;4.03;;;;;;;11.04;50.19;97509.81;1772225;80;21491;-62
2021/12/01 04:10:28;;;;;;;4.58;4.05;;;;;;;11.04;50.19;97501.84;1777335;79;21014;-61
2021/12/01 04:12:56;;;;;;;4.60;3.55;;;;;;;11.03;50.22;97496.25;1789971;79;21037;-62
2021/12/01 04:15:23;;;;;;;4.60;3.70;;;;;;;11.04;50.22;97506.36;1782403;79;21076;-62
2021/12/01 04:17:49;;;;;;;4.15;3.72;;;;;;;11.02;50.23;97495.42;1801505;79;21137;-60
2021/12/01 04:20:16;;;;;;;4.95;3.65;;;;;;;11.02;50.21;97490.63;1776325;79;21046;-60
2021/12/01 04:22:44;;;;;;;4.60;4.20;;;;;;;11.02;50.23;97494.62;1794187;79;21092;-61
2021/12/01 04:25:11;;;;;;;4.35;3.77;;;;;;;11.02;50.24;97501.27;1778649;79;21012;-60
2021/12/01 04:27:37;;;;;;;4.92;4.10;;;;;;;11.01;50.23;97497.80;1774560;79;21062;-61
2021/12/01 04:30:07;;;;;;;4.17;3.70;;;;;;;11.02;50.23;97495.42;1784162;79;21140;-62
2021/12/01 04:32:36;;;;;;;4.42;4.03;;;;;;;11.02;50.24;97493.29;1795385;79;21077;-61
2021/12/01 04:35:04;;;;;;;5.25;4.15;;;;;;;11.01;50.23;97491.16;1780525;79;21040;-62
2021/12/01 04:37:31;;;;;;;4.42;3.95;;;;;;;11.01;50.24;97484.52;1775823;79;21081;-61
2021/12/01 04:39:57;;;;;;;5.25;4.20;;;;;;;11.01;50.21;97486.37;1778421;79;21849;-61
2021/12/01 04:42:24;;;;;;;4.60;4.17;;;;;;;11.01;50.24;97494.34;1790444;79;21044;-61
2021/12/01 04:44:51;;;;;;;4.97;4.20;;;;;;;11.00;50.25;97488.72;1799499;79;21029;-61
2021/12/01 04:47:26;;;;;;;4.03;3.62;;;;;;;10.99;50.26;97491.91;1782994;79;21560;-61
2021/12/01 04:49:46;;;;;;;4.60;4.10;;;;;;;10.99;50.27;97501.70;1791949;79;21106;-61
2021/12/01 04:52:13;;;;;;;4.28;3.70;;;;;;;10.98;50.26;97493.45;1799510;79;21057;-61
2021/12/01 04:54:40;;;;;;;4.62;4.05;;;;;;;10.97;50.29;97495.80;1783800;79;21138;-60
2021/12/01 04:57:07;;;;;;;4.33;3.92;;;;;;;10.99;50.29;97497.72;1771234;79;20998;-61
2021/12/01 04:59:34;;;;;;;5.28;3.90;;;;;;;10.98;50.30;97499.57;1821785;77;20997;-60
2021/12/01 05:02:01;;;;;;;5.12;4.20;;;;;;;11.00;50.28;97504.66;1787723;80;21007;-60
2021/12/01 05:04:27;;;;;;;5.58;4.42;;;;;;;10.98;50.29;97500.89;1788222;78;21082;-61
2021/12/01 05:06:54;;;;;;;4.78;4.28;;;;;;;10.97;50.29;97503.28;1819572;78;21134;-61
2021/12/01 05:09:21;;;;;;;5.47;4.33;;;;;;;10.99;50.27;97503.03;1780751;78;20988;-60
2021/12/01 05:11:47;;;;;;;5.03;3.70;;;;;;;10.98;50.26;97496.91;1785757;79;21316;-61
2021/12/01 05:14:14;;;;;;;4.90;4.28;;;;;;;10.99;50.27;97497.22;1789031;80;21049;-61
2021/12/01 05:16:41;;;;;;;4.50;4.10;;;;;;;10.98;50.27;97498.23;1799345;78;21010;-60
2021/12/01 05:19:09;;;;;;;4.87;4.05;;;;;;;11.00;50.28;97507.31;1820363;77;21194;-62
2021/12/01 05:21:36;;;;;;;4.53;4.08;;;;;;;10.97;50.26;97507.27;1810045;77;21048;-61
2021/12/01 05:24:04;;;;;;;5.08;4.33;;;;;;;10.97;50.28;97505.94;1804551;78;21074;-60
2021/12/01 05:26:31;;;;;;;4.72;4.05;;;;;;;10.97;50.30;97510.41;1816261;78;21026;-62
2021/12/01 05:28:58;;;;;;;4.65;4.12;;;;;;;10.98;50.28;97514.70;1818090;78;21069;-60
2021/12/01 05:31:24;;;;;;;5.10;3.85;;;;;;;10.97;50.30;97509.08;1815731;77;21844;-61
2021/12/01 05:33:51;;;;;;;4.22;3.65;;;;;;;10.96;50.32;97512.80;1819114;78;21010;-60
2021/12/01 05:36:17;;;;;;;5.40;4.90;;;;;;;10.96;50.31;97511.47;1786617;80;21064;-61
2021/12/01 05:38:44;;;;;;;4.53;4.08;;;;;;;10.96;50.34;97521.56;1811462;78;21027;-59
2021/12/01 05:41:10;;;;;;;5.20;4.20;;;;;;;10.97;50.34;97530.34;1821147;78;21499;-62
2021/12/01 05:43:37;;;;;;;4.78;4.15;;;;;;;10.96;50.36;97532.72;1820672;78;21594;-62
2021/12/01 05:46:03;;;;;;;5.35;4.25;;;;;;;10.95;50.36;97533.25;1785315;79;21477;-61
2021/12/01 05:48:30;;;;;;;4.70;4.12;;;;;;;10.94;50.37;97543.56;1780796;79;21032;-61
2021/12/01 05:50:56;;;;;;;4.62;4.20;;;;;;;10.94;50.38;97545.42;1787761;79;21108;-62
2021/12/01 05:53:23;;;;;;;4.58;4.08;;;;;;;10.94;50.38;97540.91;1793047;79;21012;-61
2021/12/01 05:55:51;;;;;;;4.30;3.90;;;;;;;10.94;50.40;97547.55;1791863;79;21195;-62
2021/12/01 05:58:18;;;;;;;5.00;4.47;;;;;;;10.95;50.42;97554.99;1782037;79;21047;-62
2021/12/01 06:00:44;;;;;;;5.40;4.80;;;;;;;10.95;50.43;97565.62;1792335;79;21081;-62
2021/12/01 06:03:10;;;;;;;5.75;4.30;;;;;;;10.94;50.43;97565.34;1782053;79;21034;-61
2021/12/01 06:05:37;;;;;;;6.12;4.17;;;;;;;10.95;50.44;97569.60;1790304;79;21033;-60
2021/12/01 06:08:05;;;;;;;4.08;3.67;;;;;;;10.94;50.46;97565.34;1798694;79;21202;-61
2021/12/01 06:10:31;;;;;;;5.92;4.28;;;;;;;10.94;50.46;97574.64;1795778;79;21005;-61
2021/12/01 06:12:58;;;;;;;4.97;4.47;;;;;;;10.94;50.48;97571.98;1793827;79;21088;-62
2021/12/01 06:15:25;;;;;;;4.35;3.95;;;;;;;10.94;50.48;97577.30;1783898;78;21100;-62
2021/12/01 06:17:52;;;;;;;4.35;3.95;;;;;;;10.94;50.51;97580.75;1787622;79;21016;-61
2021/12/01 06:20:19;;;;;;;4.28;3.67;;;;;;;10.94;50.50;97590.58;1784998;79;21261;-61
2021/12/01 06:22:47;;;;;;;5.10;4.28;;;;;;;10.94;50.51;97590.05;1793486;79;21073;-61
2021/12/01 06:25:13;;;;;;;4.30;3.90;;;;;;;10.94;50.52;97584.73;1784012;79;21532;-61
2021/12/01 06:27:42;;;;;;;5.28;4.50;;;;;;;10.94;50.53;97596.69;1799767;79;21053;-62
2021/12/01 06:30:10;;;;;;;4.17;3.77;;;;;;;10.94;50.54;97598.55;1791568;79;21569;-61
2021/12/01 06:32:37;;;;;;;4.67;4.17;;;;;;;10.94;50.54;97595.89;1794201;79;21122;-61
2021/12/01 06:35:05;;;;;;;4.20;3.80;;;;;;;10.94;50.55;97601.20;1788801;79;21017;-61
2021/12/01 06:37:31;;;;;;;4.47;3.47;;;;;;;10.95;50.54;97605.47;1801887;79;21092;-62
2021/12/01 06:39:58;;;;;;;4.65;3.80;;;;;;;10.95;50.57;97602.31;1800992;79;21033;-62
2021/12/01 06:42:25;;;;;;;4.15;3.70;;;;;;;10.94;50.58;97604.66;1793252;79;21020;-61
2021/12/01 06:44:52;;;;;;;4.12;3.70;;;;;;;10.94;50.59;97602.00;1786576;79;21129;-61
2021/12/01 06:47:19;;;;;;;4.00;3.60;;;;;;;10.95;50.59;97609.45;1779985;78;20996;-60
2021/12/01 06:49:47;;;;;;;4.33;3.50;;;;;;;10.95;50.61;97616.92;1786684;79;21039;-60
2021/12/01 06:52:13;;;;;;;4.10;3.70;;;;;;;10.95;50.60;97614.77;1780302;79;21048;-62
2021/12/01 06:54:40;;;;;;;4.08;3.47;;;;;;;10.96;50.61;97620.39;1789772;78;21049;-61
2021/12/01 06:57:07;;;;;;;4.78;4.28;;;;;;;10.96;50.65;97628.36;1766088;79;23272;-60
2021/12/01 06:59:33;;;;;;;5.17;3.72;;;;;;;10.97;50.64;97628.14;1780420;79;21069;-62
2021/12/01 07:02:00;;;;;;;4.25;3.72;;;;;;;10.96;50.64;97630.48;1793753;79;21174;-62
2021/12/01 07:04:26;;;;;;;4.67;3.60;;;;;;;10.99;50.63;97638.52;1789279;79;21068;-60
2021/12/01 07:06:52;;;;;;;4.03;3.65;;;;;;;10.99;50.64;97639.84;1777964;79;21104;-62
2021/12/01 07:09:21;;;;;;;4.00;3.60;;;;;;;10.97;50.63;97639.27;1768390;79;21975;-62
2021/12/01 07:11:47;;;;;;;4.22;3.83;;;;;;;11.00;50.64;97644.14;1777179;79;21618;-62
2021/12/01 07:14:14;;;;;;;4.55;4.15;;;;;;;11.00;50.65;97654.77;1762639;79;21021;-62
2021/12/01 07:16:41;;;;;;;5.00;3.92;;;;;;;11.01;50.65;97657.73;1757858;79;21604;-64
2021/12/01 07:19:08;;;;;;;4.70;3.75;;;;;;;11.01;50.82;97616.55;1766765;79;21127;-64
2021/12/01 07:21:35;;;;;;;5.30;4.10;;;;;;;11.09;52.87;97626.88;1757931;79;21149;-60
2021/12/01 07:24:06;;;;;;;5.65;3.83;;;;;;;11.20;53.77;97620.81;1763145;79;21036;-65
2021/12/01 07:27:48;;;;;;;6.35;3.40;;;;;;;11.43;54.82;97659.67;1850307;76;28152;-64
2021/12/01 07:30:15;;;;;;;6.58;4.20;;;;;;;11.49;55.27;97668.91;1820750;77;21039;-63
2021/12/01 07:32:41;;;;;;;6.78;3.80;;;;;;;11.54;55.18;97672.22;1814025;77;21244;-65
2021/12/01 07:35:09;;;;;;;5.97;4.00;;;;;;;11.56;55.04;97678.12;1825204;77;21009;-64
2021/12/01 07:37:36;;;;;;;6.30;3.72;;;;;;;11.57;54.87;97681.05;1804508;77;20952;-65
2021/12/01 07:40:04;;;;;;;5.22;3.72;;;;;;;11.55;54.70;97675.16;1792208;77;20971;-65
2021/12/01 07:42:30;;;;;;;7.00;4.00;;;;;;;11.56;54.51;97676.27;1811801;77;21030;-64
2021/12/01 07:44:56;;;;;;;5.92;3.90;;;;;;;11.56;54.35;97674.94;1825058;77;21757;-64
2021/12/01 07:47:23;;;;;;;4.90;3.50;;;;;;;11.57;54.17;97682.38;1803493;77;21116;-64
2021/12/01 07:49:50;;;;;;;4.80;3.65;;;;;;;11.56;53.99;97685.57;1812772;77;21090;-63
2021/12/01 07:52:16;;;;;;;5.42;3.83;;;;;;;11.56;53.83;97692.22;1808895;77;21034;-64
2021/12/01 07:54:43;;;;;;;4.67;3.85;;;;;;;11.56;53.65;97697.54;1834791;77;21041;-63
2021/12/01 07:57:10;;;;;;;4.95;4.03;;;;;;;11.55;53.51;97694.59;1808418;77;23247;-64
2021/12/01 07:59:37;;;;;;;6.00;4.17;;;;;;;11.56;53.36;97702.86;1815384;77;21193;-65
2021/12/01 08:02:03;;;;;;;5.25;3.45;;;;;;;11.56;53.26;97702.05;1803540;77;21313;-65
2021/12/01 08:04:30;;;;;;;4.78;3.37;;;;;;;11.57;53.12;97711.14;1821897;77;20976;-64
2021/12/01 08:06:57;;;;;;;5.05;3.85;;;;;;;11.56;53.02;97714.82;1810779;77;21026;-64
2021/12/01 08:09:25;;;;;;;5.80;3.67;;;;;;;11.55;52.90;97723.85;1753597;79;22844;-64
2021/12/01 08:11:53;;;;;;;4.25;3.60;;;;;;;11.54;52.80;97722.22;1819905;77;21038;-64
2021/12/01 08:14:22;;;;;;;5.17;3.62;;;;;;;11.53;52.73;97717.11;1822546;77;21034;-63
2021/12/01 08:16:50;;;;;;;5.72;3.83;;;;;;;11.52;52.66;97726.95;1805037;77;21081;-64
2021/12/01 08:19:17;;;;;;;4.20;3.80;;;;;;;11.52;52.59;97728.27;1816586;77;21046;-65
2021/12/01 08:21:47;;;;;;;4.25;3.60;;;;;;;11.52;52.51;97736.78;1813690;77;21115;-66
2021/12/01 08:24:12;;;;;;;4.53;3.60;;;;;;;11.52;52.44;97738.11;1814126;77;21541;-63
2021/12/01 08:26:40;;;;;;;5.30;3.98;;;;;;;11.51;52.38;97739.96;1773482;79;21014;-63
2021/12/01 08:29:07;;;;;;;5.50;4.20;;;;;;;11.52;52.33;97739.44;1805445;77;21302;-65
2021/12/01 08:31:34;;;;;;;4.97;3.70;;;;;;;11.51;52.27;97745.28;1827222;77;21487;-64
2021/12/01 08:34:00;;;;;;;4.12;3.65;;;;;;;11.51;52.20;97751.09;1819501;77;21146;-64
2021/12/01 08:36:27;;;;;;;5.60;3.95;;;;;;;11.52;52.15;97755.39;1821660;77;21498;-64
2021/12/01 08:38:54;;;;;;;4.47;3.60;;;;;;;11.51;52.10;97756.41;1813617;77;21048;-65
2021/12/01 08:41:20;;;;;;;4.25;3.67;;;;;;;11.52;52.06;97763.37;1803659;77;21070;-64
2021/12/01 08:43:46;;;;;;;4.78;3.60;;;;;;;11.50;52.01;97763.59;1808054;77;21007;-64
2021/12/01 08:46:13;;;;;;;4.00;3.55;;;;;;;11.51;51.97;97773.20;1801801;77;21527;-65
2021/12/01 08:48:40;;;;;;;5.62;3.77;;;;;;;11.51;51.93;97769.21;1805599;77;21058;-63
2021/12/01 08:51:07;;;;;;;4.50;3.90;;;;;;;11.50;51.89;97778.21;1802451;77;21052;-62
2021/12/01 08:53:36;;;;;;;5.05;4.00;;;;;;;11.51;51.86;97770.55;1804461;77;21173;-63
2021/12/01 08:56:02;;;;;;;4.62;3.47;;;;;;;11.51;51.84;97771.88;1807559;77;21513;-63
2021/12/01 08:58:29;;;;;;;4.53;3.42;;;;;;;11.51;51.78;97774.53;1795044;77;21128;-62
2021/12/01 09:00:56;;;;;;;4.22;3.70;;;;;;;11.51;51.76;97774.53;1809106;77;21005;-62
2021/12/01 09:03:23;;;;;;;3.47;3.17;;;;;;;11.53;51.75;97775.12;1810382;77;21060;-63
2021/12/01 09:05:50;;;;;;;4.80;4.03;;;;;;;11.54;51.71;97774.06;1816233;77;21053;-63
2021/12/01 09:08:17;;;;;;;5.40;3.55;;;;;;;11.55;51.66;97784.17;1788214;77;21482;-63
2021/12/01 09:10:46;;;;;;;3.77;3.37;;;;;;;11.55;51.63;97782.36;1806249;77;21069;-62
2021/12/01 09:13:12;;;;;;;4.70;3.77;;;;;;;11.56;51.59;97785.30;1822784;77;21546;-62
2021/12/01 09:15:39;;;;;;;4.28;3.62;;;;;;;11.58;51.54;97789.88;1796212;78;21072;-66
2021/12/01 09:18:07;;;;;;;4.45;3.52;;;;;;;11.58;51.52;97795.19;1812454;77;21080;-63
2021/12/01 09:20:34;;;;;;;4.45;3.65;;;;;;;11.58;51.50;97802.36;1806725;77;21015;-62
2021/12/01 09:23:02;;;;;;;4.50;3.87;;;;;;;11.59;51.46;97805.33;1822947;77;21092;-64
2021/12/01 09:25:30;;;;;;;4.17;3.62;;;;;;;11.60;51.44;97806.94;1792618;78;21009;-63
2021/12/01 09:27:56;;;;;;;4.08;3.27;;;;;;;11.61;51.41;97811.24;1810815;77;21507;-65
2021/12/01 09:30:23;;;;;;;5.78;3.80;;;;;;;11.60;51.40;97811.73;1825375;77;21515;-63
2021/12/01 09:32:49;;;;;;;6.37;3.92;;;;;;;11.61;51.34;97814.70;1814597;77;21108;-64
2021/12/01 09:35:16;;;;;;;4.10;3.37;;;;;;;11.61;51.32;97815.23;1805724;77;21258;-64
2021/12/01 09:37:43;;;;;;;4.95;3.75;;;;;;;11.63;51.32;97825.62;1810817;77;21054;-62
2021/12/01 09:40:14;;;;;;;3.87;3.47;;;;;;;11.63;51.28;97837.09;1801314;77;21042;-62
2021/12/01 09:42:49;;;;;;;4.03;3.45;;;;;;;11.64;51.26;97839.23;1805182;77;20999;-64
2021/12/01 09:45:17;;;;;;;4.05;3.35;;;;;;;11.63;51.26;97844.23;1807558;77;21552;-64
2021/12/01 09:47:44;;;;;;;3.95;3.30;;;;;;;11.63;51.24;97847.73;1810234;77;21962;-63
2021/12/01 09:50:10;;;;;;;4.30;3.90;;;;;;;11.64;51.21;97850.67;1805138;77;21003;-63
2021/12/01 09:52:37;;;;;;;4.53;3.98;;;;;;;11.64;51.20;97860.51;1795553;77;21030;-62
2021/12/01 09:55:06;;;;;;;3.92;3.52;;;;;;;11.64;51.19;97857.84;1820283;77;21084;-63
2021/12/01 09:57:33;;;;;;;5.10;3.42;;;;;;;11.64;51.17;97867.16;1825564;77;21037;-63
2021/12/01 10:00:02;;;;;;;4.45;4.05;;;;;;;11.63;51.14;97867.68;1802043;77;21093;-64
2021/12/01 10:02:31;;;;;;;3.98;3.58;;;;;;;11.63;51.14;97876.98;1811525;77;21057;-61
2021/12/01 10:04:58;;;;;;;5.42;3.75;;;;;;;11.63;51.13;97877.48;1807807;77;21041;-63
2021/12/01 10:07:33;;;;;;;3.60;3.30;;;;;;;11.63;51.12;97884.13;1817792;77;21050;-63
2021/12/01 10:10:07;;;;;;;3.80;3.40;;;;;;;11.63;51.12;97890.78;1814998;77;21076;-63
2021/12/01 10:12:47;;;;;;;4.00;3.60;;;;;;;11.61;51.10;97889.17;1820499;77;21072;-63
2021/12/01 10:15:14;;;;;;;4.20;3.58;;;;;;;11.61;51.09;97897.67;1822023;77;21100;-63
2021/12/01 10:17:42;;;;;;;3.47;3.17;;;;;;;11.60;51.12;97902.16;1799349;77;21071;-63
2021/12/01 10:20:18;;;;;;;3.50;3.20;;;;;;;11.61;51.08;97908.31;1805347;77;21043;-65
2021/12/01 10:23:08;;;;;;;4.45;3.20;;;;;;;11.61;51.08;97921.61;1789162;77;21009;-63
2021/12/01 10:25:36;;;;;;;4.17;3.30;;;;;;;11.61;51.08;97929.06;1810969;76;21835;-64
2021/12/01 10:28:03;;;;;;;4.12;3.47;;;;;;;11.59;51.07;97923.16;1809335;77;21049;-62
2021/12/01 10:30:39;;;;;;;4.25;3.42;;;;;;;11.59;51.08;97928.47;1810555;77;21034;-64
2021/12/01 10:33:13;;;;;;;4.45;3.70;;;;;;;11.59;51.07;97923.16;1824157;77;21102;-63
2021/12/01 10:35:40;;;;;;;3.85;3.45;;;;;;;11.58;51.07;97921.52;1801849;77;21097;-63
2021/12/01 10:38:07;;;;;;;3.75;3.27;;;;;;;11.59;51.07;97930.33;1824309;77;21277;-64
2021/12/01 10:40:37;;;;;;;4.20;3.50;;;;;;;11.59;51.06;97936.45;1813007;77;21069;-63
2021/12/01 10:43:07;;;;;;;3.75;3.35;;;;;;;11.59;51.05;97935.13;1819602;77;21081;-62
2021/12/01 10:45:49;;;;;;;3.55;2.90;;;;;;;11.59;51.04;97936.98;1794400;77;21099;-61
2021/12/01 10:48:24;;;;;;;3.33;3.02;;;;;;;11.59;51.02;97947.09;1801670;77;21073;-62
2021/12/01 10:50:51;;;;;;;3.52;3.02;;;;;;;11.58;51.01;97946.78;1763260;78;21089;-61
2021/12/01 10:53:21;;;;;;;4.28;3.87;;;;;;;11.58;51.00;97945.45;1816483;77;21004;-61
2021/12/01 10:55:55;;;;;;;4.53;3.65;;;;;;;11.58;51.01;97946.78;1788966;77;21041;-61
2021/12/01 10:58:22;;;;;;;3.90;3.50;;;;;;;11.59;50.99;97952.41;1814434;77;21045;-62
2021/12/01 11:00:55;;;;;;;4.78;4.28;;;;;;;11.58;50.99;97953.42;1819819;77;21521;-62
2021/12/01 11:03:24;;;;;;;4.40;3.60;;;;;;;11.59;50.99;97960.39;1796528;77;22147;-61
2021/12/01 11:06:09;;;;;;;3.58;3.27;;;;;;;11.59;50.96;97967.03;1810027;77;21097;-61
2021/12/01 11:08:39;;;;;;;4.25;3.50;;;;;;;11.59;50.96;97968.37;1831211;77;20953;-64
2021/12/01 11:11:12;;;;;;;4.15;3.30;;;;;;;11.59;50.95;97967.56;1793237;77;21083;-64
2021/12/01 11:13:41;;;;;;;3.27;2.72;;;;;;;11.59;50.94;97970.22;1814924;77;22135;-63
2021/12/01 11:16:12;;;;;;;3.50;3.20;;;;;;;11.59;50.93;97981.66;1819578;77;21154;-63
2021/12/01 11:18:43;;;;;;;3.30;3.00;;;;;;;11.60;50.92;97978.48;1817226;77;21487;-62
2021/12/01 11:21:14;;;;;;;4.20;3.72;;;;;;;11.59;50.91;97975.54;1814411;77;21061;-63
2021/12/01 11:23:45;;;;;;;5.12;3.80;;;;;;;11.59;50.91;97979.53;1745281;80;21074;-62
2021/12/01 11:26:19;;;;;;;4.15;3.30;;;;;;;11.59;50.90;97985.66;1810282;77;21061;-62
2021/12/01 11:28:52;;;;;;;3.90;3.45;;;;;;;11.59;50.88;97983.52;1806825;77;21132;-64
2021/12/01 11:31:26;;;;;;;3.65;3.35;;;;;;;11.59;50.87;97989.64;1808258;77;21129;-66
2021/12/01 11:33:58;;;;;;;4.22;3.83;;;;;;;11.59;50.87;97990.17;1786534;77;21342;-63
2021/12/01 11:36:47;;;;;;;3.83;3.50;;;;;;;11.60;50.86;97991.78;1799980;77;21018;-63
2021/12/01 11:39:19;;;;;;;4.05;3.62;;;;;;;11.59;50.85;97994.16;1806125;77;21010;-62
2021/12/01 11:41:49;;;;;;;4.42;3.40;;;;;;;11.59;50.86;97996.30;1814403;77;21131;-62
2021/12/01 11:44:17;;;;;;;4.75;3.50;;;;;;;11.59;50.84;98000.80;1807599;77;21081;-61
2021/12/01 11:46:44;;;;;;;3.67;3.17;;;;;;;11.59;50.84;97998.95;1816466;77;21005;-62